LYNI/INI METAR and TAF weather

Enter ICAO airport designator
Station Type Date Time Source
LYNI METAR 2018/12/13 07:00 UTC NOAA

LYNI 130700Z VRB01KT 6000 NSC M03/M03 Q1022 TEMPO 3000 BR


Station Type Date Time Source
LYNI Decoded METAR 2018/12/13 07:00 UTC NOAA

Nis, Serbia and Montenegro (LYNI) 43-20N 021-54E 202M
Dec 13, 2018 - 02:00 AM EST / 2018.12.13 0700 UTC
Wind: Variable at 1 MPH (1 KT):0
Visibility: 3 mile(s):0
Temperature: 26 F (-3 C)
Dew Point: 26 F (-3 C)
Relative Humidity: 100%
Pressure (altimeter): 30.18 in. Hg (1022 hPa)
ob: LYNI 130700Z VRB01KT 6000 NSC M03/M03 Q1022 TEMPO 3000 BR
cycle: 7

Station Type Date Time Source
LYNI TAF 2018/12/13 06:21 UTC NOAA

TAF COR LYNI 130500Z 1306/1406 VRB02KT 3000 BR SCT010 TX04/1312Z TNM03/1306Z
TEMPO 1306/1307 1000
BECMG 1308/1310 9999 NSW
BECMG 1400/1402 5000 -SN
TEMPO 1402/1406 1500 SN BKN007 BKN025


Example: see airport list